createdAt,value
2022-12-12T00:00:35.773Z,13.93
2022-12-12T00:03:21.878Z,12.60
2022-12-12T00:06:07.530Z,13.82
2022-12-12T00:08:53.999Z,13.63
2022-12-12T00:11:40.894Z,13.70
2022-12-12T00:14:26.451Z,14.30
2022-12-12T00:17:11.922Z,12.45
2022-12-12T00:19:57.307Z,12.77
2022-12-12T00:22:42.845Z,13.32
2022-12-12T00:25:28.558Z,13.20
2022-12-12T00:28:14.035Z,15.05
2022-12-12T00:31:00.269Z,14.30
2022-12-12T00:33:48.159Z,15.68
2022-12-12T00:36:33.939Z,11.90
2022-12-12T00:39:19.741Z,13.88
2022-12-12T00:42:05.884Z,15.35
2022-12-12T00:44:51.546Z,14.40
2022-12-12T00:47:37.428Z,15.13
2022-12-12T00:50:23.180Z,14.63
2022-12-12T00:53:09.057Z,14.95
2022-12-12T00:55:56.779Z,16.60
2022-12-12T00:58:42.233Z,13.23
2022-12-12T01:01:30.007Z,13.65
2022-12-12T01:04:16.245Z,13.45
2022-12-12T01:07:01.697Z,13.35
2022-12-12T01:09:47.194Z,11.02
2022-12-12T01:12:32.820Z,11.10
2022-12-12T01:15:18.680Z,12.63
2022-12-12T01:18:04.803Z,9.40
2022-12-12T01:20:51.504Z,12.32
2022-12-12T01:23:37.853Z,11.48
2022-12-12T01:26:24.904Z,14.20
2022-12-12T01:29:10.287Z,10.15
2022-12-12T01:31:55.760Z,10.55
2022-12-12T01:34:41.015Z,12.02
2022-12-12T01:37:26.598Z,12.23
2022-12-12T01:40:31.734Z,10.98
2022-12-12T01:43:19.093Z,10.30
2022-12-12T01:46:04.520Z,11.80
2022-12-12T01:48:56.487Z,10.32
2022-12-12T01:51:43.327Z,11.02
2022-12-12T01:54:36.279Z,10.73
2022-12-12T01:57:32.790Z,10.52
2022-12-12T02:00:19.369Z,10.95
2022-12-12T02:03:05.362Z,10.68
2022-12-12T02:05:58.424Z,11.40
2022-12-12T02:08:46.225Z,11.32
2022-12-12T02:11:35.239Z,10.07
2022-12-12T02:14:28.728Z,11.48
2022-12-12T02:17:34.948Z,12.82
2022-12-12T02:21:02.760Z,11.98
2022-12-12T02:24:06.671Z,11.68
2022-12-12T02:27:10.402Z,12.95
2022-12-12T02:30:37.363Z,12.15
2022-12-12T02:33:37.537Z,10.90
2022-12-12T02:36:25.873Z,12.65
2022-12-12T02:39:56.042Z,13.30
2022-12-12T02:43:20.832Z,13.43
2022-12-12T02:46:45.506Z,12.57
2022-12-12T02:49:38.885Z,12.00
2022-12-12T02:52:25.093Z,11.90
2022-12-12T02:55:11.221Z,12.50
2022-12-12T02:57:57.503Z,12.50
2022-12-12T03:01:11.383Z,12.73
2022-12-12T03:04:22.223Z,12.57
2022-12-12T03:07:40.411Z,12.57
2022-12-12T03:10:38.430Z,12.60
2022-12-12T03:13:34.796Z,13.73
2022-12-12T03:16:38.505Z,12.88
2022-12-12T03:19:35.291Z,11.57
2022-12-12T03:22:53.941Z,13.88
2022-12-12T03:25:47.979Z,11.70
2022-12-12T03:28:37.204Z,13.25
2022-12-12T03:31:28.279Z,13.00
2022-12-12T03:34:23.711Z,12.40
2022-12-12T03:37:15.814Z,11.02
2022-12-12T03:40:18.816Z,13.80
2022-12-12T03:43:12.755Z,13.45
2022-12-12T03:46:12.720Z,13.02
2022-12-12T03:49:02.643Z,13.55
2022-12-12T03:51:56.104Z,14.10
2022-12-12T03:54:52.188Z,10.90
2022-12-12T03:58:02.675Z,14.65
2022-12-12T04:00:51.796Z,14.35
2022-12-12T04:04:09.190Z,13.32
2022-12-12T04:07:18.720Z,14.05
2022-12-12T04:10:24.198Z,12.88
2022-12-12T04:13:34.840Z,11.80
2022-12-12T04:16:30.004Z,13.00
2022-12-12T04:20:02.170Z,12.27
2022-12-12T04:23:18.195Z,12.10
2022-12-12T04:26:29.976Z,11.30
2022-12-12T04:29:36.187Z,12.95
2022-12-12T04:32:28.408Z,12.88
2022-12-12T04:35:19.887Z,13.02
2022-12-12T04:38:10.820Z,12.30
2022-12-12T04:40:59.498Z,13.82
2022-12-12T04:43:49.288Z,13.88
2022-12-12T04:46:37.295Z,13.15
2022-12-12T04:49:27.549Z,13.48
2022-12-12T04:52:15.347Z,13.40
2022-12-12T04:55:27.139Z,13.05
2022-12-12T04:58:13.630Z,13.55
2022-12-12T05:01:15.789Z,14.25
2022-12-12T05:04:07.685Z,14.05
2022-12-12T05:07:00.589Z,14.32
2022-12-12T05:09:46.333Z,14.40
2022-12-12T05:12:39.749Z,12.32
2022-12-12T05:15:27.998Z,14.93
2022-12-12T05:18:13.724Z,14.80
2022-12-12T05:20:59.460Z,13.77
2022-12-12T05:23:45.027Z,13.88
2022-12-12T05:26:34.009Z,13.38
2022-12-12T05:29:20.166Z,12.38
2022-12-12T05:32:05.860Z,13.38
2022-12-12T05:34:51.692Z,13.60
2022-12-12T05:37:37.616Z,14.00
2022-12-12T05:40:24.056Z,15.07
2022-12-12T05:43:11.161Z,16.77
2022-12-12T05:45:56.848Z,13.68
2022-12-12T05:48:42.225Z,14.68
2022-12-12T05:51:27.738Z,12.73
2022-12-12T05:54:13.879Z,15.20
2022-12-12T05:56:59.673Z,15.77
2022-12-12T05:59:48.936Z,12.65
2022-12-12T06:02:35.184Z,11.95
2022-12-12T06:05:21.133Z,12.48
2022-12-12T06:08:06.878Z,12.32
2022-12-12T06:10:52.947Z,14.32
2022-12-12T06:13:38.900Z,23.88
2022-12-12T06:16:24.936Z,16.33
2022-12-12T06:19:11.848Z,15.20
2022-12-12T06:21:57.663Z,12.75
2022-12-12T06:24:43.067Z,10.18
2022-12-12T06:27:28.930Z,10.88
2022-12-12T06:30:15.840Z,10.88
2022-12-12T06:33:01.941Z,15.13
2022-12-12T06:36:00.888Z,14.15
2022-12-12T06:38:46.905Z,12.23
2022-12-12T06:41:33.378Z,13.57
2022-12-12T06:44:19.114Z,12.10
2022-12-12T06:47:04.776Z,13.25
2022-12-12T06:49:50.599Z,13.38
2022-12-12T06:52:35.852Z,13.02
2022-12-12T06:55:21.437Z,11.25
2022-12-12T06:58:06.918Z,12.45
2022-12-12T07:00:53.680Z,12.30
2022-12-12T07:03:39.914Z,14.13
2022-12-12T07:06:25.967Z,15.35
2022-12-12T07:09:12.144Z,15.50
2022-12-12T07:11:57.864Z,14.10
2022-12-12T07:14:43.400Z,13.90
2022-12-12T07:17:29.043Z,14.48
2022-12-12T07:20:15.335Z,12.02
2022-12-12T07:23:00.856Z,11.02
2022-12-12T07:25:46.301Z,11.95
2022-12-12T07:28:32.484Z,11.73
2022-12-12T07:31:20.838Z,12.50
2022-12-12T07:34:06.425Z,11.90
2022-12-12T07:36:51.832Z,10.95
2022-12-12T07:39:37.549Z,10.52
2022-12-12T07:42:23.285Z,12.38
2022-12-12T07:45:12.559Z,11.82
2022-12-12T07:48:02.721Z,12.52
2022-12-12T07:50:48.751Z,14.93
2022-12-12T07:53:34.096Z,12.52
2022-12-12T07:56:20.389Z,11.25
2022-12-12T07:59:06.082Z,10.07
2022-12-12T08:01:51.678Z,12.05
2022-12-12T08:04:37.429Z,13.90
2022-12-12T08:07:23.181Z,12.52
2022-12-12T08:10:09.140Z,12.02
2022-12-12T08:12:54.653Z,9.68
2022-12-12T08:15:39.964Z,9.27
2022-12-12T08:18:25.755Z,11.02
2022-12-12T08:21:12.661Z,9.85
2022-12-12T08:23:59.454Z,10.23
2022-12-12T08:26:45.626Z,9.80
2022-12-12T08:29:31.955Z,10.32
2022-12-12T08:32:17.586Z,11.73
2022-12-12T08:35:03.891Z,12.02
2022-12-12T08:37:49.467Z,11.00
2022-12-12T08:40:36.095Z,11.90
2022-12-12T08:43:21.697Z,15.02
2022-12-12T08:46:12.318Z,22.38
2022-12-12T08:49:01.184Z,28.75
2022-12-12T08:51:47.612Z,28.17
2022-12-12T08:54:33.806Z,13.70
2022-12-12T08:57:25.635Z,24.90
2022-12-12T09:00:12.528Z,14.88
2022-12-12T09:02:58.608Z,10.57
2022-12-12T09:05:45.660Z,12.55
2022-12-12T09:08:31.250Z,12.07
2022-12-12T09:16:09.016Z,10.68
2022-12-12T09:18:54.905Z,8.73
2022-12-12T09:21:40.770Z,8.02
2022-12-12T09:24:26.711Z,7.63
2022-12-12T09:27:12.248Z,9.05
2022-12-12T09:29:57.879Z,7.00
2022-12-12T09:32:45.166Z,11.60
2022-12-12T09:35:31.696Z,9.32
2022-12-12T09:38:19.294Z,10.18
2022-12-12T09:41:21.712Z,7.63
2022-12-12T09:44:12.185Z,10.50
2022-12-12T09:47:06.059Z,10.65
2022-12-12T09:49:57.233Z,10.70
2022-12-12T09:52:44.601Z,10.73
2022-12-12T09:55:42.078Z,9.35
2022-12-12T09:58:42.155Z,8.25
2022-12-12T10:01:32.105Z,11.93
2022-12-12T10:04:31.930Z,13.13
2022-12-12T10:07:37.817Z,16.67
2022-12-12T10:10:41.358Z,9.32
2022-12-12T10:13:30.125Z,10.45
2022-12-12T10:16:15.984Z,8.73
2022-12-12T10:19:19.801Z,8.63
2022-12-12T10:22:15.455Z,8.52
2022-12-12T10:25:39.688Z,8.82
2022-12-12T10:28:28.110Z,14.93
2022-12-12T10:31:24.089Z,10.68
2022-12-12T10:34:24.583Z,10.50
2022-12-12T10:37:38.467Z,12.23
2022-12-12T10:40:33.026Z,9.35
2022-12-12T10:43:53.588Z,14.57
2022-12-12T10:46:46.587Z,7.80
2022-12-12T10:49:32.715Z,8.75
2022-12-12T10:52:22.226Z,9.82
2022-12-12T10:55:18.957Z,11.45
2022-12-12T10:58:06.134Z,16.00
2022-12-12T11:01:00.134Z,13.82
2022-12-12T11:03:51.523Z,13.10
2022-12-12T11:06:45.220Z,12.23
2022-12-12T11:09:31.953Z,8.55
2022-12-12T11:12:18.175Z,12.20
2022-12-12T11:15:17.552Z,12.40
2022-12-12T11:18:06.310Z,8.10
2022-12-12T11:21:08.556Z,7.93
2022-12-12T11:23:56.585Z,7.25
2022-12-12T11:26:52.932Z,7.88
2022-12-12T11:29:52.678Z,8.30
2022-12-12T11:32:46.009Z,7.97
2022-12-12T11:35:36.270Z,7.00
2022-12-12T11:38:31.473Z,6.05
2022-12-12T11:41:18.015Z,5.93
2022-12-12T11:44:04.016Z,5.53
2022-12-12T11:46:49.224Z,7.05
2022-12-12T11:49:46.598Z,6.82
2022-12-12T11:52:33.637Z,7.43
2022-12-12T11:55:33.001Z,6.28
2022-12-12T11:58:54.423Z,6.78
2022-12-12T12:01:48.625Z,8.70
2022-12-12T12:05:09.682Z,9.80
2022-12-12T12:08:32.793Z,7.22
2022-12-12T12:11:45.282Z,8.43
2022-12-12T12:15:04.707Z,9.48
2022-12-12T12:18:11.560Z,12.07
2022-12-12T12:21:09.925Z,20.83
2022-12-12T12:24:07.569Z,22.23
2022-12-12T12:27:28.508Z,14.80
2022-12-12T12:30:27.001Z,9.20
2022-12-12T12:33:38.039Z,10.57
2022-12-12T12:36:42.219Z,8.25
2022-12-12T12:39:48.224Z,6.90
2022-12-12T12:42:59.168Z,6.30
2022-12-12T12:45:49.999Z,6.45
2022-12-12T12:48:50.234Z,6.50
2022-12-12T12:51:45.462Z,9.90
2022-12-12T12:54:39.323Z,13.88
2022-12-12T12:57:39.506Z,14.55
2022-12-12T13:00:30.139Z,10.15
2022-12-12T13:03:24.839Z,9.77
2022-12-12T13:06:18.561Z,9.75
2022-12-12T13:09:16.222Z,11.40
2022-12-12T13:12:12.201Z,12.80
2022-12-12T13:15:12.701Z,11.80
2022-12-12T13:18:04.398Z,8.80
2022-12-12T13:21:15.757Z,11.77
2022-12-12T13:24:19.336Z,11.50
2022-12-12T13:27:21.092Z,13.20
2022-12-12T13:30:25.139Z,11.45
2022-12-12T13:33:42.146Z,9.80
2022-12-12T13:36:49.531Z,11.02
2022-12-12T13:39:37.566Z,9.52
2022-12-12T13:42:23.058Z,8.15
2022-12-12T13:45:39.703Z,10.13
2022-12-12T13:48:28.697Z,10.88
2022-12-12T13:51:33.608Z,6.35
2022-12-12T13:54:19.351Z,9.55
2022-12-12T13:57:13.374Z,8.55
2022-12-12T13:59:59.042Z,7.25
2022-12-12T14:02:57.970Z,5.88
2022-12-12T14:05:53.913Z,8.57
2022-12-12T14:08:48.589Z,6.68
2022-12-12T14:11:36.864Z,5.03
2022-12-12T14:14:23.080Z,5.68
2022-12-12T14:17:21.076Z,5.00
2022-12-12T14:20:07.545Z,5.20
2022-12-12T14:22:56.591Z,4.93
2022-12-12T14:25:43.689Z,6.15
2022-12-12T14:28:32.415Z,6.13
2022-12-12T14:31:18.230Z,6.32
2022-12-12T14:34:04.211Z,5.35
2022-12-12T14:37:20.944Z,6.55
2022-12-12T14:40:18.633Z,6.05
2022-12-12T14:43:18.618Z,6.07
2022-12-12T14:49:03.791Z,6.45
2022-12-12T14:51:51.986Z,7.82
2022-12-12T14:54:37.411Z,7.60
2022-12-12T14:57:24.340Z,7.78
2022-12-12T15:00:19.434Z,12.85
2022-12-12T15:03:05.977Z,11.38
2022-12-12T15:06:29.147Z,9.40
2022-12-12T15:09:19.118Z,7.15
2022-12-12T15:12:10.862Z,8.30
2022-12-12T15:15:00.092Z,9.48
2022-12-12T15:17:49.703Z,11.02
2022-12-12T15:20:35.882Z,23.30
2022-12-12T15:23:22.316Z,13.50
2022-12-12T15:26:17.632Z,15.90
2022-12-12T15:29:03.526Z,18.67
2022-12-12T15:31:56.427Z,15.68
2022-12-12T15:34:45.503Z,14.20
2022-12-12T15:37:36.864Z,14.68
2022-12-12T15:40:26.662Z,17.25
2022-12-12T15:43:15.806Z,17.90
2022-12-12T15:46:14.148Z,22.23
2022-12-12T15:49:00.326Z,29.77
2022-12-12T15:51:46.145Z,31.13
2022-12-12T15:54:31.736Z,25.63
2022-12-12T15:57:24.032Z,22.05
2022-12-12T16:00:44.016Z,20.75
2022-12-12T16:03:31.072Z,23.75
2022-12-12T16:06:17.785Z,28.23
2022-12-12T16:09:12.346Z,29.30
2022-12-12T16:11:59.041Z,33.33
2022-12-12T16:14:44.930Z,32.00
2022-12-12T16:17:31.223Z,28.42
2022-12-12T16:20:17.047Z,24.60
2022-12-12T16:23:32.959Z,24.30
2022-12-12T16:26:19.260Z,21.02
2022-12-12T16:29:05.253Z,17.83
2022-12-12T16:31:51.968Z,14.57
2022-12-12T16:34:39.734Z,13.30
2022-12-12T16:37:26.021Z,12.32
2022-12-12T16:40:16.844Z,11.77
2022-12-12T16:43:09.536Z,11.30
2022-12-12T16:45:58.105Z,9.85
2022-12-12T16:48:45.378Z,9.45
2022-12-12T16:51:33.741Z,9.88
2022-12-12T16:54:19.166Z,9.13
2022-12-12T16:57:04.651Z,9.32
2022-12-12T16:59:50.126Z,10.02
2022-12-12T17:02:36.364Z,11.05
2022-12-12T17:05:47.673Z,8.73
2022-12-12T17:08:33.337Z,9.40
2022-12-12T17:11:19.253Z,9.10
2022-12-12T17:14:05.817Z,9.43
2022-12-12T17:16:53.832Z,7.30
2022-12-12T17:19:39.246Z,7.35
2022-12-12T17:22:25.071Z,8.38
2022-12-12T17:25:12.180Z,7.93
2022-12-12T17:27:58.735Z,7.60
2022-12-12T17:30:46.335Z,8.48
2022-12-12T17:33:35.826Z,11.25
2022-12-12T17:36:24.084Z,10.65
2022-12-12T17:39:11.150Z,8.77
2022-12-12T17:42:00.546Z,9.98
2022-12-12T17:44:46.678Z,8.85
2022-12-12T17:47:32.878Z,10.55
2022-12-12T17:50:19.102Z,11.38
2022-12-12T17:53:05.130Z,11.45
2022-12-12T17:55:55.673Z,9.13
2022-12-12T17:58:48.231Z,10.23
2022-12-12T18:01:34.287Z,9.77
2022-12-12T18:04:27.393Z,8.63
2022-12-12T18:07:14.124Z,7.85
2022-12-12T18:09:59.958Z,7.50
2022-12-12T18:12:49.941Z,7.20
2022-12-12T18:15:37.248Z,8.98
2022-12-12T18:18:24.132Z,7.07
2022-12-12T18:21:29.247Z,6.18
2022-12-12T18:24:23.202Z,6.60
2022-12-12T18:27:09.928Z,6.65
2022-12-12T18:29:55.815Z,7.65
2022-12-12T18:32:40.909Z,9.15
2022-12-12T18:35:26.214Z,8.55
2022-12-12T18:38:11.612Z,9.70
2022-12-12T18:40:57.829Z,7.20
2022-12-12T18:43:43.613Z,12.18
2022-12-12T18:46:31.161Z,9.35
2022-12-12T18:49:18.452Z,8.07
2022-12-12T18:52:05.510Z,8.18
2022-12-12T18:54:52.194Z,9.02
2022-12-12T18:57:37.793Z,9.48
2022-12-12T19:00:24.409Z,7.57
2022-12-12T19:03:10.213Z,8.18
2022-12-12T19:05:56.433Z,8.18
2022-12-12T19:08:42.590Z,11.82
2022-12-12T19:11:28.827Z,9.95
2022-12-12T19:14:16.130Z,6.63
2022-12-12T19:17:01.897Z,5.97
2022-12-12T19:19:50.175Z,6.65
2022-12-12T19:22:51.037Z,8.32
2022-12-12T19:25:42.593Z,6.18
2022-12-12T19:28:28.636Z,7.63
2022-12-12T19:31:16.968Z,7.70
2022-12-12T19:34:06.089Z,7.68
2022-12-12T19:36:52.679Z,7.70
2022-12-12T19:39:38.953Z,9.05
2022-12-12T19:42:24.970Z,9.55
2022-12-12T19:45:12.538Z,7.75
2022-12-12T19:47:58.324Z,7.80
2022-12-12T19:50:46.593Z,6.88
2022-12-12T19:53:32.688Z,6.05
2022-12-12T19:56:27.290Z,5.78
2022-12-12T19:59:15.594Z,6.13
2022-12-12T20:02:01.125Z,5.38
2022-12-12T20:04:47.363Z,6.10
2022-12-12T20:07:32.826Z,5.38
2022-12-12T20:10:18.451Z,7.43
2022-12-12T20:13:07.052Z,7.20
2022-12-12T20:15:53.624Z,6.85
2022-12-12T20:18:41.692Z,6.07
2022-12-12T20:22:00.455Z,5.18
2022-12-12T20:24:44.379Z,7.10
2022-12-12T20:27:34.065Z,7.38
2022-12-12T20:30:19.946Z,8.95
2022-12-12T20:33:05.737Z,8.85
2022-12-12T20:35:52.407Z,8.40
2022-12-12T20:38:49.731Z,8.52
2022-12-12T20:41:39.799Z,9.30
2022-12-12T20:44:26.150Z,11.10
2022-12-12T20:47:14.454Z,9.32
2022-12-12T20:50:03.181Z,10.23
2022-12-12T20:52:50.912Z,10.52
2022-12-12T20:55:37.643Z,11.52
2022-12-12T20:58:23.151Z,11.98
2022-12-12T21:01:23.021Z,11.07
2022-12-12T21:04:09.858Z,11.20
2022-12-12T21:06:57.612Z,13.00
2022-12-12T21:09:43.894Z,17.17
2022-12-12T21:12:29.511Z,15.27
2022-12-12T21:15:16.601Z,15.27
2022-12-12T21:18:05.211Z,23.92
2022-12-12T21:20:50.797Z,20.15
2022-12-12T21:23:37.851Z,16.52
2022-12-12T21:26:28.893Z,10.70
2022-12-12T21:29:16.041Z,7.68
2022-12-12T21:32:01.173Z,7.47
2022-12-12T21:34:47.058Z,5.97
2022-12-12T21:37:38.653Z,5.60
2022-12-12T21:40:26.267Z,6.10
2022-12-12T21:43:12.020Z,6.88
2022-12-12T21:45:58.896Z,5.55
2022-12-12T21:48:46.721Z,5.38
2022-12-12T21:51:32.557Z,5.72
2022-12-12T21:54:17.858Z,6.03
2022-12-12T21:57:03.908Z,6.68
2022-12-12T21:59:50.675Z,6.70
2022-12-12T22:02:36.005Z,6.80
2022-12-12T22:05:23.450Z,7.20
2022-12-12T22:08:09.327Z,5.22
2022-12-12T22:10:54.953Z,5.13
2022-12-12T22:13:42.497Z,5.97
2022-12-12T22:16:33.545Z,6.82
2022-12-12T22:19:19.432Z,5.70
2022-12-12T22:22:04.871Z,7.30
2022-12-12T22:24:50.758Z,6.20
2022-12-12T22:27:36.688Z,6.80
2022-12-12T22:30:22.324Z,6.40
2022-12-12T22:33:07.907Z,6.38
2022-12-12T22:35:54.875Z,4.97
2022-12-12T22:38:41.024Z,6.78
2022-12-12T22:41:27.900Z,7.47
2022-12-12T22:44:16.543Z,5.95
2022-12-12T22:47:02.419Z,5.95
2022-12-12T22:49:47.729Z,5.88
2022-12-12T22:52:34.131Z,7.20
2022-12-12T22:55:19.593Z,6.00
2022-12-12T22:58:05.852Z,6.88
2022-12-12T23:00:53.166Z,5.93
2022-12-12T23:03:39.665Z,7.55
2022-12-12T23:06:30.685Z,6.90
2022-12-12T23:09:20.483Z,6.40
2022-12-12T23:12:07.716Z,5.68
2022-12-12T23:14:53.350Z,6.63
2022-12-12T23:17:38.704Z,5.68
2022-12-12T23:20:24.182Z,6.20
2022-12-12T23:23:10.260Z,6.15
2022-12-12T23:25:56.200Z,6.30
2022-12-12T23:28:43.003Z,5.47
2022-12-12T23:31:32.141Z,5.97
2022-12-12T23:34:24.008Z,6.38
2022-12-12T23:37:09.856Z,6.65
2022-12-12T23:39:55.436Z,6.10
2022-12-12T23:42:40.732Z,5.03
2022-12-12T23:45:26.326Z,6.13
2022-12-12T23:48:11.765Z,6.28
2022-12-12T23:50:58.242Z,5.55
2022-12-12T23:53:44.160Z,5.00
2022-12-12T23:56:30.476Z,6.10
2022-12-12T23:59:18.170Z,6.00
